sensor_id;sensor_type;location;lat;lon;timestamp;temperature;humidity
23116;DHT22;11727;52.134;5.052;2022-07-23T00:01:23;17.00;99.90
23116;DHT22;11727;52.134;5.052;2022-07-23T00:03:49;17.00;99.90
23116;DHT22;11727;52.134;5.052;2022-07-23T00:06:15;16.90;99.90
23116;DHT22;11727;52.134;5.052;2022-07-23T00:08:40;16.90;99.90
23116;DHT22;11727;52.134;5.052;2022-07-23T00:11:06;17.00;99.90
23116;DHT22;11727;52.134;5.052;2022-07-23T00:13:32;16.90;99.90
23116;DHT22;11727;52.134;5.052;2022-07-23T00:15:57;16.90;99.90
23116;DHT22;11727;52.134;5.052;2022-07-23T00:18:23;16.90;99.90
23116;DHT22;11727;52.134;5.052;2022-07-23T00:20:49;16.90;99.90
23116;DHT22;11727;52.134;5.052;2022-07-23T00:23:14;16.90;99.90
23116;DHT22;11727;52.134;5.052;2022-07-23T00:25:40;16.80;99.90
23116;DHT22;11727;52.134;5.052;2022-07-23T00:28:05;16.80;99.90
23116;DHT22;11727;52.134;5.052;2022-07-23T00:30:32;16.80;99.90
23116;DHT22;11727;52.134;5.052;2022-07-23T00:33:01;16.70;99.90
23116;DHT22;11727;52.134;5.052;2022-07-23T00:35:29;16.70;99.90
23116;DHT22;11727;52.134;5.052;2022-07-23T00:37:56;16.70;99.90
23116;DHT22;11727;52.134;5.052;2022-07-23T00:40:22;16.60;99.90
23116;DHT22;11727;52.134;5.052;2022-07-23T00:42:48;16.60;99.90
23116;DHT22;11727;52.134;5.052;2022-07-23T00:45:13;16.60;99.90
23116;DHT22;11727;52.134;5.052;2022-07-23T00:47:39;16.60;99.90
23116;DHT22;11727;52.134;5.052;2022-07-23T00:50:07;16.50;99.90
23116;DHT22;11727;52.134;5.052;2022-07-23T00:52:34;16.50;99.90
23116;DHT22;11727;52.134;5.052;2022-07-23T00:54:59;16.50;99.90
23116;DHT22;11727;52.134;5.052;2022-07-23T00:57:25;16.50;99.90
23116;DHT22;11727;52.134;5.052;2022-07-23T00:59:51;16.50;99.90
23116;DHT22;11727;52.134;5.052;2022-07-23T01:02:17;16.50;99.90
23116;DHT22;11727;52.134;5.052;2022-07-23T01:04:42;16.40;99.90
23116;DHT22;11727;52.134;5.052;2022-07-23T01:07:08;16.40;99.90
23116;DHT22;11727;52.134;5.052;2022-07-23T01:09:34;16.40;99.90
23116;DHT22;11727;52.134;5.052;2022-07-23T01:12:00;16.40;99.90
23116;DHT22;11727;52.134;5.052;2022-07-23T01:14:26;16.40;99.90
23116;DHT22;11727;52.134;5.052;2022-07-23T01:16:52;16.30;99.90
23116;DHT22;11727;52.134;5.052;2022-07-23T01:19:18;16.30;99.90
23116;DHT22;11727;52.134;5.052;2022-07-23T01:21:48;16.30;99.90
23116;DHT22;11727;52.134;5.052;2022-07-23T01:24:15;16.30;99.90
23116;DHT22;11727;52.134;5.052;2022-07-23T01:26:44;16.30;99.90
23116;DHT22;11727;52.134;5.052;2022-07-23T01:29:10;16.30;99.90
23116;DHT22;11727;52.134;5.052;2022-07-23T01:31:36;16.30;99.90
23116;DHT22;11727;52.134;5.052;2022-07-23T01:34:02;16.30;99.90
23116;DHT22;11727;52.134;5.052;2022-07-23T01:36:28;16.30;99.90
23116;DHT22;11727;52.134;5.052;2022-07-23T01:38:53;16.20;99.90
23116;DHT22;11727;52.134;5.052;2022-07-23T01:41:19;16.20;99.90
23116;DHT22;11727;52.134;5.052;2022-07-23T01:43:45;16.20;99.90
23116;DHT22;11727;52.134;5.052;2022-07-23T01:46:11;16.20;99.90
23116;DHT22;11727;52.134;5.052;2022-07-23T01:48:37;16.20;99.90
23116;DHT22;11727;52.134;5.052;2022-07-23T01:51:03;16.10;99.90
23116;DHT22;11727;52.134;5.052;2022-07-23T01:53:29;16.20;99.90
23116;DHT22;11727;52.134;5.052;2022-07-23T01:55:59;16.10;99.90
23116;DHT22;11727;52.134;5.052;2022-07-23T01:58:26;16.10;99.90
23116;DHT22;11727;52.134;5.052;2022-07-23T02:00:52;16.10;99.90
23116;DHT22;11727;52.134;5.052;2022-07-23T02:03:18;16.10;99.90
23116;DHT22;11727;52.134;5.052;2022-07-23T02:05:44;16.10;99.90
23116;DHT22;11727;52.134;5.052;2022-07-23T02:08:10;16.00;99.90
23116;DHT22;11727;52.134;5.052;2022-07-23T02:10:35;16.00;99.90
23116;DHT22;11727;52.134;5.052;2022-07-23T02:13:01;16.00;99.90
23116;DHT22;11727;52.134;5.052;2022-07-23T02:15:26;16.00;99.90
23116;DHT22;11727;52.134;5.052;2022-07-23T02:17:54;15.90;99.90
23116;DHT22;11727;52.134;5.052;2022-07-23T02:20:19;15.90;99.90
23116;DHT22;11727;52.134;5.052;2022-07-23T02:22:45;15.90;99.90
23116;DHT22;11727;52.134;5.052;2022-07-23T02:25:11;15.80;99.90
23116;DHT22;11727;52.134;5.052;2022-07-23T02:27:37;15.80;99.90
23116;DHT22;11727;52.134;5.052;2022-07-23T02:30:03;15.80;99.90
23116;DHT22;11727;52.134;5.052;2022-07-23T02:32:29;15.80;99.90
23116;DHT22;11727;52.134;5.052;2022-07-23T02:34:55;15.80;99.90
23116;DHT22;11727;52.134;5.052;2022-07-23T02:37:20;15.70;99.90
23116;DHT22;11727;52.134;5.052;2022-07-23T02:39:46;15.70;99.90
23116;DHT22;11727;52.134;5.052;2022-07-23T02:42:13;15.70;99.90
23116;DHT22;11727;52.134;5.052;2022-07-23T02:44:39;15.70;99.90
23116;DHT22;11727;52.134;5.052;2022-07-23T02:47:05;15.70;99.90
23116;DHT22;11727;52.134;5.052;2022-07-23T02:49:30;15.70;99.90
23116;DHT22;11727;52.134;5.052;2022-07-23T02:51:56;15.60;99.90
23116;DHT22;11727;52.134;5.052;2022-07-23T02:54:21;15.60;99.90
23116;DHT22;11727;52.134;5.052;2022-07-23T02:56:47;15.60;99.90
23116;DHT22;11727;52.134;5.052;2022-07-23T02:59:13;15.60;99.90
23116;DHT22;11727;52.134;5.052;2022-07-23T03:01:39;15.60;99.90
23116;DHT22;11727;52.134;5.052;2022-07-23T03:04:04;15.60;99.90
23116;DHT22;11727;52.134;5.052;2022-07-23T03:06:30;15.60;99.90
23116;DHT22;11727;52.134;5.052;2022-07-23T03:08:55;15.60;99.90
23116;DHT22;11727;52.134;5.052;2022-07-23T03:11:21;15.50;99.90
23116;DHT22;11727;52.134;5.052;2022-07-23T03:13:47;15.60;99.90
23116;DHT22;11727;52.134;5.052;2022-07-23T03:16:12;15.50;99.90
23116;DHT22;11727;52.134;5.052;2022-07-23T03:18:38;15.50;99.90
23116;DHT22;11727;52.134;5.052;2022-07-23T03:21:03;15.50;99.90
23116;DHT22;11727;52.134;5.052;2022-07-23T03:23:29;15.50;99.90
23116;DHT22;11727;52.134;5.052;2022-07-23T03:25:55;15.50;99.90
23116;DHT22;11727;52.134;5.052;2022-07-23T03:28:20;15.50;99.90
23116;DHT22;11727;52.134;5.052;2022-07-23T03:30:47;15.50;99.90
23116;DHT22;11727;52.134;5.052;2022-07-23T03:33:17;15.50;99.90
23116;DHT22;11727;52.134;5.052;2022-07-23T03:35:47;15.50;99.90
23116;DHT22;11727;52.134;5.052;2022-07-23T03:38:13;15.50;99.90
23116;DHT22;11727;52.134;5.052;2022-07-23T03:40:39;15.50;99.90
23116;DHT22;11727;52.134;5.052;2022-07-23T03:43:04;15.60;99.90
23116;DHT22;11727;52.134;5.052;2022-07-23T03:45:31;15.60;99.90
23116;DHT22;11727;52.134;5.052;2022-07-23T03:47:56;15.60;99.90
23116;DHT22;11727;52.134;5.052;2022-07-23T03:50:22;15.60;99.90
23116;DHT22;11727;52.134;5.052;2022-07-23T03:52:48;15.60;99.90
23116;DHT22;11727;52.134;5.052;2022-07-23T03:55:14;15.60;99.90
23116;DHT22;11727;52.134;5.052;2022-07-23T03:57:40;15.60;99.90
23116;DHT22;11727;52.134;5.052;2022-07-23T04:00:07;15.60;99.90
23116;DHT22;11727;52.134;5.052;2022-07-23T04:02:35;15.60;99.90
23116;DHT22;11727;52.134;5.052;2022-07-23T04:05:00;15.60;99.90
23116;DHT22;11727;52.134;5.052;2022-07-23T04:07:26;15.60;99.90
23116;DHT22;11727;52.134;5.052;2022-07-23T04:09:52;15.60;99.90
23116;DHT22;11727;52.134;5.052;2022-07-23T04:12:17;15.60;99.90
23116;DHT22;11727;52.134;5.052;2022-07-23T04:14:44;15.60;99.90
23116;DHT22;11727;52.134;5.052;2022-07-23T04:17:10;15.60;99.90
23116;DHT22;11727;52.134;5.052;2022-07-23T04:19:36;15.50;99.90
23116;DHT22;11727;52.134;5.052;2022-07-23T04:22:05;15.50;99.90
23116;DHT22;11727;52.134;5.052;2022-07-23T04:24:31;15.50;99.90
23116;DHT22;11727;52.134;5.052;2022-07-23T04:26:57;15.50;99.90
23116;DHT22;11727;52.134;5.052;2022-07-23T04:29:23;15.50;99.90
23116;DHT22;11727;52.134;5.052;2022-07-23T04:31:49;15.50;99.90
23116;DHT22;11727;52.134;5.052;2022-07-23T04:34:14;15.50;99.90
23116;DHT22;11727;52.134;5.052;2022-07-23T04:36:40;15.50;99.90
23116;DHT22;11727;52.134;5.052;2022-07-23T04:39:05;15.50;99.90
23116;DHT22;11727;52.134;5.052;2022-07-23T04:41:31;15.50;99.90
23116;DHT22;11727;52.134;5.052;2022-07-23T04:43:57;15.50;99.90
23116;DHT22;11727;52.134;5.052;2022-07-23T04:46:23;15.50;99.90
23116;DHT22;11727;52.134;5.052;2022-07-23T04:48:48;15.50;99.90
23116;DHT22;11727;52.134;5.052;2022-07-23T04:51:14;15.50;99.90
23116;DHT22;11727;52.134;5.052;2022-07-23T04:53:40;15.50;99.90
23116;DHT22;11727;52.134;5.052;2022-07-23T04:56:05;15.50;99.90
23116;DHT22;11727;52.134;5.052;2022-07-23T04:58:31;15.50;99.90
23116;DHT22;11727;52.134;5.052;2022-07-23T05:00:57;15.50;99.90
23116;DHT22;11727;52.134;5.052;2022-07-23T05:03:23;15.60;99.90
23116;DHT22;11727;52.134;5.052;2022-07-23T05:05:49;15.60;99.90
23116;DHT22;11727;52.134;5.052;2022-07-23T05:08:14;15.60;99.90
23116;DHT22;11727;52.134;5.052;2022-07-23T05:10:40;15.70;99.90
23116;DHT22;11727;52.134;5.052;2022-07-23T05:13:06;15.70;99.90
23116;DHT22;11727;52.134;5.052;2022-07-23T05:15:31;15.70;99.90
23116;DHT22;11727;52.134;5.052;2022-07-23T05:17:57;15.80;99.90
23116;DHT22;11727;52.134;5.052;2022-07-23T05:20:22;15.80;99.90
23116;DHT22;11727;52.134;5.052;2022-07-23T05:22:48;15.90;99.90
23116;DHT22;11727;52.134;5.052;2022-07-23T05:25:14;16.00;99.90
23116;DHT22;11727;52.134;5.052;2022-07-23T05:27:39;16.00;99.90
23116;DHT22;11727;52.134;5.052;2022-07-23T05:30:05;16.00;99.90
23116;DHT22;11727;52.134;5.052;2022-07-23T05:32:32;16.10;99.90
23116;DHT22;11727;52.134;5.052;2022-07-23T05:34:58;16.20;99.90
23116;DHT22;11727;52.134;5.052;2022-07-23T05:37:23;16.30;99.90
23116;DHT22;11727;52.134;5.052;2022-07-23T05:39:49;16.30;99.90
23116;DHT22;11727;52.134;5.052;2022-07-23T05:42:15;16.40;99.90
23116;DHT22;11727;52.134;5.052;2022-07-23T05:44:40;16.50;99.90
23116;DHT22;11727;52.134;5.052;2022-07-23T05:47:06;16.50;99.90
23116;DHT22;11727;52.134;5.052;2022-07-23T05:49:32;16.60;99.90
23116;DHT22;11727;52.134;5.052;2022-07-23T05:51:57;16.70;99.90
23116;DHT22;11727;52.134;5.052;2022-07-23T05:54:23;16.70;99.90
23116;DHT22;11727;52.134;5.052;2022-07-23T05:56:48;16.90;99.90
23116;DHT22;11727;52.134;5.052;2022-07-23T05:59:15;17.00;99.90
23116;DHT22;11727;52.134;5.052;2022-07-23T06:01:41;17.00;99.90
23116;DHT22;11727;52.134;5.052;2022-07-23T06:04:07;17.00;99.90
23116;DHT22;11727;52.134;5.052;2022-07-23T06:06:32;17.10;99.90
23116;DHT22;11727;52.134;5.052;2022-07-23T06:08:58;17.10;99.90
23116;DHT22;11727;52.134;5.052;2022-07-23T06:11:24;17.20;99.90
23116;DHT22;11727;52.134;5.052;2022-07-23T06:13:49;17.20;99.90
23116;DHT22;11727;52.134;5.052;2022-07-23T06:16:15;17.20;99.90
23116;DHT22;11727;52.134;5.052;2022-07-23T06:18:41;17.30;99.90
23116;DHT22;11727;52.134;5.052;2022-07-23T06:21:06;17.30;99.90
23116;DHT22;11727;52.134;5.052;2022-07-23T06:23:32;17.50;99.90
23116;DHT22;11727;52.134;5.052;2022-07-23T06:25:57;17.50;99.90
23116;DHT22;11727;52.134;5.052;2022-07-23T06:28:23;17.60;99.90
23116;DHT22;11727;52.134;5.052;2022-07-23T06:30:48;17.70;99.90
23116;DHT22;11727;52.134;5.052;2022-07-23T06:33:14;17.80;99.90
23116;DHT22;11727;52.134;5.052;2022-07-23T06:35:40;17.90;99.90
23116;DHT22;11727;52.134;5.052;2022-07-23T06:38:05;18.00;99.90
23116;DHT22;11727;52.134;5.052;2022-07-23T06:40:31;18.10;99.90
23116;DHT22;11727;52.134;5.052;2022-07-23T06:42:56;18.20;99.90
23116;DHT22;11727;52.134;5.052;2022-07-23T06:45:22;18.30;99.90
23116;DHT22;11727;52.134;5.052;2022-07-23T06:47:48;18.30;99.90
23116;DHT22;11727;52.134;5.052;2022-07-23T06:50:13;18.40;99.90
23116;DHT22;11727;52.134;5.052;2022-07-23T06:52:39;18.50;99.90
23116;DHT22;11727;52.134;5.052;2022-07-23T06:55:05;18.60;99.90
23116;DHT22;11727;52.134;5.052;2022-07-23T06:57:30;18.70;99.90
23116;DHT22;11727;52.134;5.052;2022-07-23T06:59:56;18.80;99.90
23116;DHT22;11727;52.134;5.052;2022-07-23T07:02:22;19.00;99.90
23116;DHT22;11727;52.134;5.052;2022-07-23T07:04:47;19.10;99.90
23116;DHT22;11727;52.134;5.052;2022-07-23T07:07:13;19.20;99.90
23116;DHT22;11727;52.134;5.052;2022-07-23T07:09:38;19.30;99.90
23116;DHT22;11727;52.134;5.052;2022-07-23T07:12:04;19.40;99.90
23116;DHT22;11727;52.134;5.052;2022-07-23T07:14:30;19.40;99.90
23116;DHT22;11727;52.134;5.052;2022-07-23T07:16:56;19.50;99.90
23116;DHT22;11727;52.134;5.052;2022-07-23T07:19:21;19.60;99.90
23116;DHT22;11727;52.134;5.052;2022-07-23T07:21:47;19.60;99.90
23116;DHT22;11727;52.134;5.052;2022-07-23T07:24:13;19.70;99.90
23116;DHT22;11727;52.134;5.052;2022-07-23T07:26:38;19.80;99.90
23116;DHT22;11727;52.134;5.052;2022-07-23T07:29:05;19.90;99.90
23116;DHT22;11727;52.134;5.052;2022-07-23T07:31:31;20.00;99.90
23116;DHT22;11727;52.134;5.052;2022-07-23T07:33:56;20.10;99.90
23116;DHT22;11727;52.134;5.052;2022-07-23T07:36:23;20.30;99.90
23116;DHT22;11727;52.134;5.052;2022-07-23T07:38:48;20.30;99.90
23116;DHT22;11727;52.134;5.052;2022-07-23T07:41:14;20.50;99.90
23116;DHT22;11727;52.134;5.052;2022-07-23T07:43:39;20.50;99.90
23116;DHT22;11727;52.134;5.052;2022-07-23T07:46:05;20.60;99.90
23116;DHT22;11727;52.134;5.052;2022-07-23T07:48:38;20.60;99.90
23116;DHT22;11727;52.134;5.052;2022-07-23T07:51:04;20.70;99.90
23116;DHT22;11727;52.134;5.052;2022-07-23T07:53:30;20.60;99.90
23116;DHT22;11727;52.134;5.052;2022-07-23T07:55:55;20.70;99.90
23116;DHT22;11727;52.134;5.052;2022-07-23T07:58:21;20.70;99.90
23116;DHT22;11727;52.134;5.052;2022-07-23T08:00:47;20.90;99.90
23116;DHT22;11727;52.134;5.052;2022-07-23T08:03:13;20.90;99.90
23116;DHT22;11727;52.134;5.052;2022-07-23T08:05:38;20.90;99.90
23116;DHT22;11727;52.134;5.052;2022-07-23T08:08:04;21.10;99.90
23116;DHT22;11727;52.134;5.052;2022-07-23T08:10:30;21.10;99.90
23116;DHT22;11727;52.134;5.052;2022-07-23T08:12:57;21.20;99.90
23116;DHT22;11727;52.134;5.052;2022-07-23T08:15:26;21.40;99.90
23116;DHT22;11727;52.134;5.052;2022-07-23T08:17:52;21.50;99.90
23116;DHT22;11727;52.134;5.052;2022-07-23T08:20:19;21.60;99.90
23116;DHT22;11727;52.134;5.052;2022-07-23T08:25:23;21.80;99.90
23116;DHT22;11727;52.134;5.052;2022-07-23T08:27:49;21.80;99.90
23116;DHT22;11727;52.134;5.052;2022-07-23T08:30:16;21.80;99.90
23116;DHT22;11727;52.134;5.052;2022-07-23T08:35:30;22.00;99.90
23116;DHT22;11727;52.134;5.052;2022-07-23T08:37:57;22.10;99.90
23116;DHT22;11727;52.134;5.052;2022-07-23T08:40:26;22.20;99.90
23116;DHT22;11727;52.134;5.052;2022-07-23T08:42:52;22.20;99.90
23116;DHT22;11727;52.134;5.052;2022-07-23T08:45:23;22.30;99.90
23116;DHT22;11727;52.134;5.052;2022-07-23T08:47:54;22.30;99.90
23116;DHT22;11727;52.134;5.052;2022-07-23T08:50:22;22.30;99.90
23116;DHT22;11727;52.134;5.052;2022-07-23T08:52:52;22.30;99.90
23116;DHT22;11727;52.134;5.052;2022-07-23T08:55:19;22.30;99.90
23116;DHT22;11727;52.134;5.052;2022-07-23T08:57:47;22.30;99.90
23116;DHT22;11727;52.134;5.052;2022-07-23T09:00:14;22.40;99.90
23116;DHT22;11727;52.134;5.052;2022-07-23T09:02:41;22.40;99.90
23116;DHT22;11727;52.134;5.052;2022-07-23T09:05:09;22.50;99.90
23116;DHT22;11727;52.134;5.052;2022-07-23T09:07:37;22.50;99.90
23116;DHT22;11727;52.134;5.052;2022-07-23T09:10:09;22.50;99.90
23116;DHT22;11727;52.134;5.052;2022-07-23T09:12:35;22.60;99.90
23116;DHT22;11727;52.134;5.052;2022-07-23T09:15:05;22.80;99.90
23116;DHT22;11727;52.134;5.052;2022-07-23T09:17:37;22.80;99.90
23116;DHT22;11727;52.134;5.052;2022-07-23T09:20:15;22.90;99.90
23116;DHT22;11727;52.134;5.052;2022-07-23T09:22:45;22.90;99.90
23116;DHT22;11727;52.134;5.052;2022-07-23T09:25:18;22.80;99.90
23116;DHT22;11727;52.134;5.052;2022-07-23T09:27:55;22.80;99.90
23116;DHT22;11727;52.134;5.052;2022-07-23T09:30:26;22.90;99.90
23116;DHT22;11727;52.134;5.052;2022-07-23T09:33:23;23.00;99.90
23116;DHT22;11727;52.134;5.052;2022-07-23T09:35:55;23.00;99.90
23116;DHT22;11727;52.134;5.052;2022-07-23T09:38:23;22.90;99.90
23116;DHT22;11727;52.134;5.052;2022-07-23T09:41:08;22.90;99.90
23116;DHT22;11727;52.134;5.052;2022-07-23T09:43:34;22.90;99.90
23116;DHT22;11727;52.134;5.052;2022-07-23T09:48:44;23.10;99.90
23116;DHT22;11727;52.134;5.052;2022-07-23T09:51:10;23.20;99.90
23116;DHT22;11727;52.134;5.052;2022-07-23T09:53:35;23.40;99.90
23116;DHT22;11727;52.134;5.052;2022-07-23T09:56:02;23.50;99.90
23116;DHT22;11727;52.134;5.052;2022-07-23T09:58:28;23.60;99.90
23116;DHT22;11727;52.134;5.052;2022-07-23T10:00:56;23.60;99.90
23116;DHT22;11727;52.134;5.052;2022-07-23T10:03:23;23.70;99.90
23116;DHT22;11727;52.134;5.052;2022-07-23T10:05:50;23.70;99.90
23116;DHT22;11727;52.134;5.052;2022-07-23T10:08:18;23.60;99.90
23116;DHT22;11727;52.134;5.052;2022-07-23T10:10:46;23.60;99.90
23116;DHT22;11727;52.134;5.052;2022-07-23T10:13:13;23.60;99.90
23116;DHT22;11727;52.134;5.052;2022-07-23T10:16:14;23.60;99.90
23116;DHT22;11727;52.134;5.052;2022-07-23T10:18:40;23.60;99.90
23116;DHT22;11727;52.134;5.052;2022-07-23T10:21:08;23.70;99.90
23116;DHT22;11727;52.134;5.052;2022-07-23T10:23:42;23.80;99.90
23116;DHT22;11727;52.134;5.052;2022-07-23T10:26:17;23.90;99.90
23116;DHT22;11727;52.134;5.052;2022-07-23T10:29:01;24.00;99.90
23116;DHT22;11727;52.134;5.052;2022-07-23T10:31:31;24.10;99.90
23116;DHT22;11727;52.134;5.052;2022-07-23T10:37:16;24.20;99.90
23116;DHT22;11727;52.134;5.052;2022-07-23T10:40:24;24.00;99.90
23116;DHT22;11727;52.134;5.052;2022-07-23T10:42:51;23.90;99.90
23116;DHT22;11727;52.134;5.052;2022-07-23T10:45:27;23.90;99.90
23116;DHT22;11727;52.134;5.052;2022-07-23T10:47:55;24.00;99.90
23116;DHT22;11727;52.134;5.052;2022-07-23T10:50:26;24.00;99.90
23116;DHT22;11727;52.134;5.052;2022-07-23T10:57:57;24.30;99.90
23116;DHT22;11727;52.134;5.052;2022-07-23T11:00:24;24.30;99.90
23116;DHT22;11727;52.134;5.052;2022-07-23T11:02:53;24.40;99.90
23116;DHT22;11727;52.134;5.052;2022-07-23T11:05:21;24.40;99.90
23116;DHT22;11727;52.134;5.052;2022-07-23T11:10:33;24.50;99.90
23116;DHT22;11727;52.134;5.052;2022-07-23T11:24:08;24.90;99.90
23116;DHT22;11727;52.134;5.052;2022-07-23T11:34:48;24.90;99.90
23116;DHT22;11727;52.134;5.052;2022-07-23T11:37:40;24.90;99.90
23116;DHT22;11727;52.134;5.052;2022-07-23T11:40:11;24.80;99.90
23116;DHT22;11727;52.134;5.052;2022-07-23T11:42:39;24.90;99.90
23116;DHT22;11727;52.134;5.052;2022-07-23T11:45:07;25.00;99.90
23116;DHT22;11727;52.134;5.052;2022-07-23T11:47:34;25.10;99.90
23116;DHT22;11727;52.134;5.052;2022-07-23T11:50:03;25.30;99.90
23116;DHT22;11727;52.134;5.052;2022-07-23T11:52:29;25.50;99.90
23116;DHT22;11727;52.134;5.052;2022-07-23T11:55:07;25.50;99.90
23116;DHT22;11727;52.134;5.052;2022-07-23T11:57:35;25.60;99.90
23116;DHT22;11727;52.134;5.052;2022-07-23T12:00:13;25.60;99.90
23116;DHT22;11727;52.134;5.052;2022-07-23T12:02:43;25.50;99.90
23116;DHT22;11727;52.134;5.052;2022-07-23T12:05:20;25.50;99.90
23116;DHT22;11727;52.134;5.052;2022-07-23T12:07:47;25.60;99.90
23116;DHT22;11727;52.134;5.052;2022-07-23T12:10:29;25.60;99.90
23116;DHT22;11727;52.134;5.052;2022-07-23T12:12:57;25.40;99.90
23116;DHT22;11727;52.134;5.052;2022-07-23T12:15:29;25.30;99.90
23116;DHT22;11727;52.134;5.052;2022-07-23T12:17:59;25.20;99.90
23116;DHT22;11727;52.134;5.052;2022-07-23T12:20:26;25.10;99.90
23116;DHT22;11727;52.134;5.052;2022-07-23T12:22:56;25.20;99.90
23116;DHT22;11727;52.134;5.052;2022-07-23T12:25:24;25.20;99.90
23116;DHT22;11727;52.134;5.052;2022-07-23T12:30:31;25.20;99.90
23116;DHT22;11727;52.134;5.052;2022-07-23T12:32:58;25.30;99.90
23116;DHT22;11727;52.134;5.052;2022-07-23T12:35:31;25.40;99.90
23116;DHT22;11727;52.134;5.052;2022-07-23T12:38:01;25.30;99.90
23116;DHT22;11727;52.134;5.052;2022-07-23T12:40:30;25.40;99.90
23116;DHT22;11727;52.134;5.052;2022-07-23T12:43:03;25.30;99.90
23116;DHT22;11727;52.134;5.052;2022-07-23T12:45:42;25.20;99.90
23116;DHT22;11727;52.134;5.052;2022-07-23T12:48:14;25.20;99.90
23116;DHT22;11727;52.134;5.052;2022-07-23T12:50:58;25.20;99.90
23116;DHT22;11727;52.134;5.052;2022-07-23T12:53:33;25.10;99.90
23116;DHT22;11727;52.134;5.052;2022-07-23T13:01:30;25.30;99.90
23116;DHT22;11727;52.134;5.052;2022-07-23T13:06:44;25.40;99.90
23116;DHT22;11727;52.134;5.052;2022-07-23T13:09:15;25.50;99.90
23116;DHT22;11727;52.134;5.052;2022-07-23T13:11:42;25.50;99.90
23116;DHT22;11727;52.134;5.052;2022-07-23T13:14:08;25.50;99.90
23116;DHT22;11727;52.134;5.052;2022-07-23T13:16:34;25.60;99.90
23116;DHT22;11727;52.134;5.052;2022-07-23T13:19:00;25.70;99.90
23116;DHT22;11727;52.134;5.052;2022-07-23T13:21:27;25.70;99.90
23116;DHT22;11727;52.134;5.052;2022-07-23T13:23:54;25.80;99.90
23116;DHT22;11727;52.134;5.052;2022-07-23T13:26:20;25.90;99.90
23116;DHT22;11727;52.134;5.052;2022-07-23T13:28:45;26.00;99.90
23116;DHT22;11727;52.134;5.052;2022-07-23T13:31:11;26.10;99.90
23116;DHT22;11727;52.134;5.052;2022-07-23T13:33:36;26.20;99.90
23116;DHT22;11727;52.134;5.052;2022-07-23T13:36:02;26.30;99.90
23116;DHT22;11727;52.134;5.052;2022-07-23T13:38:28;26.30;99.90
23116;DHT22;11727;52.134;5.052;2022-07-23T13:40:54;26.30;99.90
23116;DHT22;11727;52.134;5.052;2022-07-23T13:43:22;26.30;99.90
23116;DHT22;11727;52.134;5.052;2022-07-23T13:45:48;26.40;99.90
23116;DHT22;11727;52.134;5.052;2022-07-23T13:48:14;26.50;99.90
23116;DHT22;11727;52.134;5.052;2022-07-23T13:50:41;26.60;99.90
23116;DHT22;11727;52.134;5.052;2022-07-23T13:53:09;26.70;99.90
23116;DHT22;11727;52.134;5.052;2022-07-23T13:55:37;26.80;99.90
23116;DHT22;11727;52.134;5.052;2022-07-23T13:58:03;26.80;99.90
23116;DHT22;11727;52.134;5.052;2022-07-23T14:00:30;26.80;99.90
23116;DHT22;11727;52.134;5.052;2022-07-23T14:02:57;26.60;99.90
23116;DHT22;11727;52.134;5.052;2022-07-23T14:05:23;26.50;99.90
23116;DHT22;11727;52.134;5.052;2022-07-23T14:07:48;26.50;99.90
23116;DHT22;11727;52.134;5.052;2022-07-23T14:10:16;26.50;99.90
23116;DHT22;11727;52.134;5.052;2022-07-23T14:12:43;26.50;99.90
23116;DHT22;11727;52.134;5.052;2022-07-23T14:15:09;26.50;99.90
23116;DHT22;11727;52.134;5.052;2022-07-23T14:17:42;26.50;99.90
23116;DHT22;11727;52.134;5.052;2022-07-23T14:20:09;26.60;99.90
23116;DHT22;11727;52.134;5.052;2022-07-23T14:22:35;26.70;99.90
23116;DHT22;11727;52.134;5.052;2022-07-23T14:25:01;26.80;99.90
23116;DHT22;11727;52.134;5.052;2022-07-23T14:27:27;27.00;99.90
23116;DHT22;11727;52.134;5.052;2022-07-23T14:29:54;26.90;99.90
23116;DHT22;11727;52.134;5.052;2022-07-23T14:32:20;26.90;99.90
23116;DHT22;11727;52.134;5.052;2022-07-23T14:34:46;26.90;99.90
23116;DHT22;11727;52.134;5.052;2022-07-23T14:37:12;26.80;99.90
23116;DHT22;11727;52.134;5.052;2022-07-23T14:39:39;26.90;99.90
23116;DHT22;11727;52.134;5.052;2022-07-23T14:42:05;26.90;99.90
23116;DHT22;11727;52.134;5.052;2022-07-23T14:44:31;26.90;99.90
23116;DHT22;11727;52.134;5.052;2022-07-23T14:46:56;27.00;99.90
23116;DHT22;11727;52.134;5.052;2022-07-23T14:49:22;27.00;99.90
23116;DHT22;11727;52.134;5.052;2022-07-23T14:51:48;27.00;99.90
23116;DHT22;11727;52.134;5.052;2022-07-23T14:54:14;27.00;99.90
23116;DHT22;11727;52.134;5.052;2022-07-23T14:56:41;27.00;99.90
23116;DHT22;11727;52.134;5.052;2022-07-23T14:59:07;27.00;99.90
23116;DHT22;11727;52.134;5.052;2022-07-23T15:01:33;27.00;99.90
23116;DHT22;11727;52.134;5.052;2022-07-23T15:03:59;26.90;99.90
23116;DHT22;11727;52.134;5.052;2022-07-23T15:06:24;26.90;99.90
23116;DHT22;11727;52.134;5.052;2022-07-23T15:08:50;26.90;99.90
23116;DHT22;11727;52.134;5.052;2022-07-23T15:11:16;27.00;99.90
23116;DHT22;11727;52.134;5.052;2022-07-23T15:13:42;26.90;99.90
23116;DHT22;11727;52.134;5.052;2022-07-23T15:16:08;26.90;99.90
23116;DHT22;11727;52.134;5.052;2022-07-23T15:18:34;26.90;99.90
23116;DHT22;11727;52.134;5.052;2022-07-23T15:20:59;26.90;99.90
23116;DHT22;11727;52.134;5.052;2022-07-23T15:23:26;26.80;99.90
23116;DHT22;11727;52.134;5.052;2022-07-23T15:25:54;26.80;99.90
23116;DHT22;11727;52.134;5.052;2022-07-23T15:28:20;26.80;99.90
23116;DHT22;11727;52.134;5.052;2022-07-23T15:30:46;26.80;99.90
23116;DHT22;11727;52.134;5.052;2022-07-23T15:33:11;26.80;99.90
23116;DHT22;11727;52.134;5.052;2022-07-23T15:35:37;26.90;99.90
23116;DHT22;11727;52.134;5.052;2022-07-23T15:38:03;26.90;99.90
23116;DHT22;11727;52.134;5.052;2022-07-23T15:40:28;27.00;99.90
23116;DHT22;11727;52.134;5.052;2022-07-23T15:42:54;27.10;99.90
23116;DHT22;11727;52.134;5.052;2022-07-23T15:45:20;27.10;99.90
23116;DHT22;11727;52.134;5.052;2022-07-23T15:47:47;27.20;99.90
23116;DHT22;11727;52.134;5.052;2022-07-23T15:50:14;27.10;99.90
23116;DHT22;11727;52.134;5.052;2022-07-23T15:52:40;27.20;99.90
23116;DHT22;11727;52.134;5.052;2022-07-23T15:55:06;27.20;99.90
23116;DHT22;11727;52.134;5.052;2022-07-23T15:57:32;27.20;99.90
23116;DHT22;11727;52.134;5.052;2022-07-23T15:59:58;27.10;99.90
23116;DHT22;11727;52.134;5.052;2022-07-23T16:02:24;26.90;99.90
23116;DHT22;11727;52.134;5.052;2022-07-23T16:04:50;26.60;99.90
23116;DHT22;11727;52.134;5.052;2022-07-23T16:07:20;26.00;99.90
23116;DHT22;11727;52.134;5.052;2022-07-23T16:09:45;25.40;99.90
23116;DHT22;11727;52.134;5.052;2022-07-23T16:12:11;24.90;99.90
23116;DHT22;11727;52.134;5.052;2022-07-23T16:14:37;24.50;99.90
23116;DHT22;11727;52.134;5.052;2022-07-23T16:17:02;24.20;99.90
23116;DHT22;11727;52.134;5.052;2022-07-23T16:19:28;24.00;99.90